Pagrindinis puslapis
METAR-TAF:

METAR-TAF

Oro uostai :

Brevig Mission, Aliaska, Jungtinės Amerikos Valstijos

platuma: 65-19-53N, ilguma: 166-27-57W, Aukštis: 11 m

Dabartinis oras

Ataskaita buvo paskelbta 27 minutes, ne 06:56 UTC
Vėjas 11 kt iš Rytų
Temperatūra -24°C
Drėgmė 76%
Slėgis 1018 hPa
Matomumas: 16.1 km
Giedras dangus

METAR: PFKT 280656Z AUTO 10011KT 10SM CLR M24/M27 A3006 RMK AO2 SLP181 T12441272 FZRANO

Laikas: 22:23 (07:23 UTC)


TAF: trūkstamas

Orai ataskaitas ir orų prognozės (METAR, TAF).

turimą stotys yra geltonos ir raudonos taškus žemėlapyje.

Perkelti pele per norėdami pamatyti stoties vardą.

Tada spustelėkite, norėdami matyti oro stebėjimo ir prognozės.

Norėdami pakeisti žemėlapį: spustelėkite ant žalios mygtukų su juodo kryžiaus žemyn,; žalią mygtuką su brūkšneliu, jei norite nutolinti; arba žalių rodyklių gretimoms žemėlapius.


METAR-TAF: